Time;durP1;ratioP1;P1;durP2;ratioP2;P2;SDS_P1;SDS_P2;PMS_P1;PMS_P2;Temp;Humidity;BMP_temperature;BMP_pressure;BME280_temperature;BME280_humidity;BME280_pressure;Samples;Min_cycle;Max_cycle;Signal;HPM_P1;HPM_P2
2022/09/12 00:02:23;;;;;;;18.08;16.30;;;15.60;99.90;;;;;;5042235;28;20078;-68
2022/09/12 00:04:49;;;;;;;20.45;18.35;;;15.60;99.90;;;;;;5042437;28;20037;-68
2022/09/12 00:07:14;;;;;;;19.65;17.60;;;15.60;99.90;;;;;;5045149;28;20429;-69
2022/09/12 00:09:40;;;;;;;20.45;17.80;;;15.60;99.90;;;;;;5045072;28;20442;-70
2022/09/12 00:12:06;;;;;;;20.63;18.15;;;15.60;99.90;;;;;;5039342;28;20479;-69
2022/09/12 00:14:34;;;;;;;19.58;17.48;;;15.50;99.90;;;;;;5045169;28;21596;-69
2022/09/12 00:17:00;;;;;;;19.63;17.58;;;15.50;99.90;;;;;;5045794;28;20052;-70
2022/09/12 00:19:29;;;;;;;20.67;18.50;;;15.50;99.90;;;;;;5043327;28;20041;-69
2022/09/12 00:21:55;;;;;;;20.10;18.00;;;15.50;99.90;;;;;;5041673;28;20045;-69
2022/09/12 00:24:21;;;;;;;19.48;17.48;;;15.40;99.90;;;;;;5042911;28;20052;-69
2022/09/12 00:26:47;;;;;;;20.13;18.23;;;15.40;99.90;;;;;;5037619;28;20064;-69
2022/09/12 00:29:17;;;;;;;22.25;20.02;;;15.40;99.90;;;;;;5036424;28;20057;-70
2022/09/12 00:31:44;;;;;;;20.83;18.55;;;15.40;99.90;;;;;;5037285;28;20490;-69
2022/09/12 00:34:09;;;;;;;22.23;19.83;;;15.50;99.90;;;;;;5036621;28;20055;-69
2022/09/12 00:36:35;;;;;;;23.20;20.50;;;15.40;99.90;;;;;;5026934;28;20033;-70
2022/09/12 00:39:02;;;;;;;22.98;20.67;;;15.50;99.90;;;;;;5041172;28;20044;-69
2022/09/12 00:41:31;;;;;;;24.48;21.42;;;15.50;99.90;;;;;;5041452;28;20100;-69
2022/09/12 00:44:04;;;;;;;23.20;20.88;;;15.40;99.90;;;;;;5040703;28;20049;-69
2022/09/12 00:46:36;;;;;;;21.83;19.63;;;15.50;99.90;;;;;;5040469;28;20371;-69
2022/09/12 00:49:16;;;;;;;25.65;21.63;;;15.40;99.90;;;;;;5042323;28;20384;-69
2022/09/12 00:51:58;;;;;;;24.27;21.60;;;15.40;99.90;;;;;;5038341;28;20124;-70
2022/09/12 00:54:28;;;;;;;24.13;21.52;;;15.40;99.90;;;;;;5036282;28;20053;-69
2022/09/12 00:56:59;;;;;;;23.67;21.27;;;15.40;99.90;;;;;;5034540;28;20053;-69
2022/09/12 00:59:31;;;;;;;24.88;20.45;;;15.40;99.90;;;;;;5035749;28;20421;-69
2022/09/12 01:01:57;;;;;;;24.63;22.05;;;15.40;99.90;;;;;;5035845;28;20052;-69
2022/09/12 01:04:25;;;;;;;23.48;20.98;;;15.40;99.90;;;;;;5037008;28;20045;-70
2022/09/12 01:06:53;;;;;;;23.13;20.67;;;15.40;99.90;;;;;;5034700;28;20052;-69
2022/09/12 01:09:21;;;;;;;23.85;21.27;;;15.40;99.90;;;;;;5044534;28;20190;-68
2022/09/12 01:11:49;;;;;;;24.42;21.20;;;15.40;99.90;;;;;;5039449;28;20375;-69
2022/09/12 01:14:16;;;;;;;23.50;19.65;;;15.40;99.90;;;;;;5044576;28;20049;-70
2022/09/12 01:16:43;;;;;;;25.25;20.48;;;15.40;99.90;;;;;;5039683;28;20049;-68
2022/09/12 01:19:50;;;;;;;23.95;21.45;;;15.40;99.90;;;;;;5034072;28;20053;-68
2022/09/12 01:23:11;;;;;;;21.17;19.08;;;15.50;99.90;;;;;;5042704;28;20483;-69
2022/09/12 01:26:07;;;;;;;22.90;20.58;;;15.30;99.90;;;;;;4967954;28;20059;-70
2022/09/12 01:28:51;;;;;;;24.42;22.02;;;15.40;99.90;;;;;;5041386;28;20057;-68
2022/09/12 01:31:23;;;;;;;19.65;17.60;;;15.30;99.90;;;;;;5035066;28;20381;-69
2022/09/12 01:34:14;;;;;;;21.85;19.65;;;15.30;99.90;;;;;;5041874;28;20056;-70
2022/09/12 01:36:48;;;;;;;21.38;18.90;;;15.40;99.90;;;;;;5039076;28;20094;-68
2022/09/12 01:39:31;;;;;;;19.25;17.30;;;15.40;99.90;;;;;;5036895;28;20049;-69
2022/09/12 01:42:09;;;;;;;21.08;18.88;;;15.30;99.90;;;;;;5041708;28;20045;-69
2022/09/12 01:44:45;;;;;;;23.02;20.67;;;15.30;99.90;;;;;;5038499;28;20029;-69
2022/09/12 01:47:18;;;;;;;21.42;18.90;;;15.40;99.90;;;;;;5037953;28;20053;-70
2022/09/12 01:50:01;;;;;;;21.52;19.23;;;15.40;99.90;;;;;;5034852;28;20516;-69
2022/09/12 01:52:46;;;;;;;20.73;18.25;;;15.30;99.90;;;;;;5035938;28;20046;-68
2022/09/12 01:55:22;;;;;;;19.40;17.35;;;15.30;99.90;;;;;;5033819;28;20077;-69
2022/09/12 01:57:57;;;;;;;20.88;18.67;;;15.40;99.90;;;;;;5043840;28;20045;-69
2022/09/12 02:00:23;;;;;;;21.63;18.33;;;15.40;99.90;;;;;;5044495;28;20063;-70
2022/09/12 02:03:01;;;;;;;19.05;17.15;;;15.30;99.90;;;;;;5042505;28;20044;-70
2022/09/12 02:05:32;;;;;;;19.15;17.30;;;15.40;99.90;;;;;;5019217;28;20497;-69
2022/09/12 02:08:26;;;;;;;20.00;17.15;;;15.40;99.90;;;;;;5040533;28;20055;-69
2022/09/12 02:10:55;;;;;;;18.42;16.52;;;15.40;99.90;;;;;;5039281;28;20049;-68
2022/09/12 02:13:30;;;;;;;25.08;17.58;;;15.40;99.90;;;;;;5039031;28;20041;-69
2022/09/12 02:16:03;;;;;;;19.25;17.25;;;15.40;99.90;;;;;;5044621;28;20044;-69
2022/09/12 02:18:32;;;;;;;17.15;15.35;;;15.40;99.90;;;;;;5047817;28;20094;-70
2022/09/12 02:21:00;;;;;;;19.23;17.05;;;15.40;99.90;;;;;;5044802;28;20463;-68
2022/09/12 02:23:30;;;;;;;23.70;17.15;;;15.40;99.90;;;;;;5038582;28;20045;-68
2022/09/12 02:26:02;;;;;;;19.58;17.48;;;15.50;99.90;;;;;;5047029;28;20059;-69
2022/09/12 02:28:35;;;;;;;22.85;19.40;;;15.40;99.90;;;;;;5046020;28;20073;-69
2022/09/12 02:31:25;;;;;;;22.43;19.73;;;15.50;99.90;;;;;;5037527;28;20395;-68
2022/09/12 02:34:07;;;;;;;28.23;21.33;;;15.50;99.90;;;;;;5046531;28;20037;-69
2022/09/12 02:36:50;;;;;;;21.85;18.52;;;15.50;99.90;;;;;;5041457;28;20056;-69
2022/09/12 02:39:20;;;;;;;21.50;18.77;;;15.50;99.90;;;;;;5047032;28;20065;-69
2022/09/12 02:41:54;;;;;;;23.60;20.83;;;15.40;99.90;;;;;;5041056;28;20041;-69
2022/09/12 02:44:22;;;;;;;23.25;20.85;;;15.50;99.90;;;;;;5044829;28;20080;-70
2022/09/12 02:46:54;;;;;;;24.23;21.70;;;15.40;99.90;;;;;;5038716;28;20041;-69
2022/09/12 02:49:19;;;;;;;24.48;21.88;;;15.40;99.90;;;;;;5040412;28;20147;-70
2022/09/12 02:51:45;;;;;;;25.58;22.00;;;15.40;99.90;;;;;;5041826;28;20479;-70
2022/09/12 02:54:12;;;;;;;23.05;20.35;;;15.40;99.90;;;;;;5046513;28;20123;-68
2022/09/12 02:56:41;;;;;;;24.63;22.02;;;15.40;99.90;;;;;;5040601;28;20464;-69
2022/09/12 02:59:10;;;;;;;26.50;22.02;;;15.40;99.90;;;;;;5026507;28;20360;-69
2022/09/12 03:01:57;;;;;;;28.70;22.95;;;15.40;99.90;;;;;;5038316;28;20475;-68
2022/09/12 03:04:55;;;;;;;26.13;23.27;;;15.40;99.90;;;;;;5039817;28;20102;-68
2022/09/12 03:07:33;;;;;;;29.13;22.23;;;15.40;99.90;;;;;;5047175;28;20486;-68
2022/09/12 03:10:18;;;;;;;28.50;22.38;;;15.40;99.90;;;;;;5038188;28;20041;-68
2022/09/12 03:13:05;;;;;;;29.58;23.98;;;15.40;99.90;;;;;;5039690;28;20061;-69
2022/09/12 03:15:40;;;;;;;28.05;25.10;;;15.30;99.90;;;;;;5041892;28;20083;-69
2022/09/12 03:18:19;;;;;;;26.10;23.30;;;15.40;99.90;;;;;;5045385;28;20471;-69
2022/09/12 03:21:04;;;;;;;26.75;23.90;;;15.40;99.90;;;;;;5036346;28;20486;-69
2022/09/12 03:23:33;;;;;;;;;;;15.40;99.90;;;;;;5043026;28;20152;-69
2022/09/12 03:26:22;;;;;;;30.17;24.45;;;15.40;99.90;;;;;;5042976;28;20422;-68
2022/09/12 03:28:49;;;;;;;28.00;24.85;;;15.40;99.90;;;;;;5042930;28;20049;-70
2022/09/12 03:31:17;;;;;;;26.35;23.55;;;15.40;99.90;;;;;;5042081;28;20095;-70
2022/09/12 03:33:43;;;;;;;26.02;22.48;;;15.40;99.90;;;;;;5044762;28;20120;-69
2022/09/12 03:36:16;;;;;;;30.70;22.95;;;15.40;99.90;;;;;;5025824;28;20371;-68
2022/09/12 03:38:41;;;;;;;29.77;24.23;;;15.40;99.90;;;;;;5040292;28;20410;-69
2022/09/12 03:41:07;;;;;;;28.88;22.95;;;15.40;99.90;;;;;;5040423;28;20118;-69
2022/09/12 03:43:33;;;;;;;26.48;23.58;;;15.40;99.90;;;;;;5039523;28;20045;-69
2022/09/12 03:45:58;;;;;;;26.95;24.05;;;15.50;99.90;;;;;;5042362;28;20069;-70
2022/09/12 03:48:24;;;;;;;26.60;23.73;;;15.60;99.90;;;;;;5042132;28;20045;-69
2022/09/12 03:50:49;;;;;;;31.52;24.60;;;15.60;99.90;;;;;;5039310;28;20107;-69
2022/09/12 03:53:15;;;;;;;27.65;24.02;;;15.50;99.90;;;;;;5043056;28;20049;-69
2022/09/12 03:55:41;;;;;;;25.85;23.05;;;15.60;99.90;;;;;;5043441;28;20041;-69
2022/09/12 03:58:06;;;;;;;25.15;21.75;;;15.60;99.90;;;;;;5035863;28;20459;-69
2022/09/12 04:00:32;;;;;;;26.08;22.95;;;15.60;99.90;;;;;;5042656;28;20068;-68
2022/09/12 04:02:58;;;;;;;26.13;22.90;;;15.60;99.90;;;;;;5039725;28;20053;-68
2022/09/12 04:05:24;;;;;;;27.48;22.42;;;15.60;99.90;;;;;;5043129;28;20041;-69
2022/09/12 04:07:50;;;;;;;28.80;23.45;;;15.50;99.90;;;;;;5040373;28;20363;-69
2022/09/12 04:10:16;;;;;;;26.63;22.50;;;15.60;99.90;;;;;;5033970;28;20057;-69
2022/09/12 04:12:42;;;;;;;27.13;23.85;;;15.50;99.90;;;;;;5019270;28;20096;-70
2022/09/12 04:15:08;;;;;;;31.23;24.25;;;15.50;99.90;;;;;;5036755;28;20037;-70
2022/09/12 04:17:34;;;;;;;32.03;23.60;;;15.50;99.90;;;;;;5042583;28;20041;-70
2022/09/12 04:20:00;;;;;;;34.83;26.58;;;15.50;99.90;;;;;;5045856;28;20037;-69
2022/09/12 04:22:26;;;;;;;29.88;24.90;;;15.40;99.90;;;;;;5038383;28;20048;-70
2022/09/12 04:24:52;;;;;;;28.88;25.48;;;15.40;99.90;;;;;;5040240;28;20060;-69
2022/09/12 04:27:18;;;;;;;31.45;25.80;;;15.50;99.90;;;;;;5042081;28;20045;-70
2022/09/12 04:29:43;;;;;;;29.75;23.70;;;15.40;99.90;;;;;;5038619;28;20460;-70
2022/09/12 04:32:09;;;;;;;28.23;24.25;;;15.40;99.90;;;;;;5040056;28;20037;-69
2022/09/12 04:34:34;;;;;;;31.67;26.25;;;15.40;99.90;;;;;;5037531;28;20056;-68
2022/09/12 04:37:00;;;;;;;35.90;26.05;;;15.50;99.90;;;;;;5034875;28;20033;-69
2022/09/12 04:39:25;;;;;;;31.50;26.65;;;15.50;99.90;;;;;;5038980;28;20046;-70
2022/09/12 04:41:51;;;;;;;30.40;25.40;;;15.40;99.90;;;;;;5040258;28;20056;-69
2022/09/12 04:44:17;;;;;;;29.60;25.75;;;15.40;99.90;;;;;;5042317;28;20057;-68
2022/09/12 04:46:45;;;;;;;31.92;26.42;;;15.40;99.90;;;;;;5037666;28;20068;-68
2022/09/12 04:49:13;;;;;;;33.33;26.15;;;15.40;99.90;;;;;;5038304;28;20451;-70
2022/09/12 04:51:40;;;;;;;31.52;25.75;;;15.40;99.90;;;;;;5038315;28;20454;-68
2022/09/12 04:54:10;;;;;;;31.20;25.83;;;15.40;99.90;;;;;;5039291;28;20041;-68
2022/09/12 04:56:38;;;;;;;30.40;24.50;;;15.40;99.90;;;;;;5043918;28;20087;-69
2022/09/12 04:59:04;;;;;;;33.38;26.05;;;15.40;99.90;;;;;;5035759;28;20041;-69
2022/09/12 05:01:29;;;;;;;27.60;24.67;;;15.40;99.90;;;;;;5035105;28;20041;-68
2022/09/12 05:03:56;;;;;;;29.02;24.10;;;15.40;99.90;;;;;;5037834;28;20041;-70
2022/09/12 05:06:24;;;;;;;33.55;24.25;;;15.40;99.90;;;;;;5036971;28;20045;-67
2022/09/12 05:08:51;;;;;;;33.42;25.27;;;15.40;99.90;;;;;;5040103;28;20133;-69
2022/09/12 05:11:21;;;;;;;27.45;24.38;;;15.40;99.90;;;;;;5042987;28;20111;-69
2022/09/12 05:13:46;;;;;;;34.50;25.20;;;15.40;99.90;;;;;;5035708;28;20048;-69
2022/09/12 05:16:15;;;;;;;28.95;25.02;;;15.40;99.90;;;;;;5034039;28;20055;-70
2022/09/12 05:18:43;;;;;;;30.48;23.60;;;15.40;99.90;;;;;;5036278;28;20049;-70
2022/09/12 05:21:11;;;;;;;29.95;24.63;;;15.40;99.90;;;;;;5035643;28;20103;-69
2022/09/12 05:23:36;;;;;;;31.20;24.95;;;15.40;99.90;;;;;;5041344;28;20049;-69
2022/09/12 05:26:04;;;;;;;29.05;25.17;;;15.40;99.90;;;;;;5038522;28;20057;-71
2022/09/12 05:28:39;;;;;;;30.90;26.73;;;15.30;99.90;;;;;;5036889;28;20716;-69
2022/09/12 05:31:13;;;;;;;29.50;24.90;;;15.40;99.90;;;;;;5033990;28;20056;-68
2022/09/12 05:33:41;;;;;;;29.23;24.08;;;15.30;99.90;;;;;;5040746;28;20052;-69
2022/09/12 05:36:10;;;;;;;31.85;25.67;;;15.40;99.90;;;;;;5042247;28;20041;-68
2022/09/12 05:38:36;;;;;;;29.35;25.13;;;15.40;99.90;;;;;;5043910;28;20098;-72
2022/09/12 05:41:13;;;;;;;29.33;23.73;;;15.30;99.90;;;;;;5044015;28;20037;-70
2022/09/12 05:43:41;;;;;;;27.42;24.15;;;15.40;99.90;;;;;;5042188;28;20056;-72
2022/09/12 05:46:17;;;;;;;32.22;25.45;;;15.40;99.90;;;;;;5043614;28;20036;-71
2022/09/12 05:48:45;;;;;;;28.70;24.92;;;15.40;99.90;;;;;;5035299;28;20045;-70
2022/09/12 05:51:18;;;;;;;30.55;24.38;;;15.30;99.90;;;;;;5035235;28;20349;-68
2022/09/12 05:53:44;;;;;;;31.33;24.85;;;15.40;99.90;;;;;;5033693;28;20037;-70
2022/09/12 05:56:16;;;;;;;27.92;23.35;;;15.40;99.90;;;;;;5044026;28;20033;-70
2022/09/12 05:58:43;;;;;;;26.98;23.55;;;15.40;99.90;;;;;;5041648;28;20072;-69
2022/09/12 06:01:14;;;;;;;30.13;24.45;;;15.40;99.90;;;;;;5040229;28;20052;-69
2022/09/12 06:03:48;;;;;;;30.08;24.58;;;15.40;99.90;;;;;;5043899;28;20087;-72
2022/09/12 06:06:17;;;;;;;26.88;24.00;;;15.40;99.90;;;;;;5043175;28;20368;-70
2022/09/12 06:08:45;;;;;;;27.88;23.10;;;15.40;99.90;;;;;;5042578;28;20050;-70
2022/09/12 06:11:14;;;;;;;29.77;25.27;;;15.40;99.90;;;;;;5041453;28;20033;-70
2022/09/12 06:13:41;;;;;;;29.10;24.15;;;15.50;99.90;;;;;;5039516;28;20380;-69
2022/09/12 06:16:09;;;;;;;30.60;25.13;;;15.50;99.90;;;;;;5041097;28;20060;-70
2022/09/12 06:18:36;;;;;;;28.20;24.10;;;15.40;99.90;;;;;;5034791;28;20403;-69
2022/09/12 06:21:03;;;;;;;28.55;24.15;;;15.50;99.90;;;;;;5034301;28;20478;-69
2022/09/12 06:23:29;;;;;;;27.42;23.73;;;15.60;99.90;;;;;;5034318;28;20037;-68
2022/09/12 06:25:55;;;;;;;28.77;23.77;;;15.60;99.90;;;;;;5037497;28;20151;-69
2022/09/12 06:28:20;;;;;;;26.35;23.10;;;15.60;99.90;;;;;;5034939;28;20462;-68
2022/09/12 06:30:47;;;;;;;27.15;23.50;;;15.60;99.90;;;;;;5039646;28;20121;-70
2022/09/12 06:33:13;;;;;;;26.45;22.95;;;15.60;99.90;;;;;;5034579;28;20045;-69
2022/09/12 06:35:39;;;;;;;26.60;22.85;;;15.70;99.90;;;;;;5037825;28;20036;-69
2022/09/12 06:38:05;;;;;;;28.23;24.25;;;15.70;99.90;;;;;;5043606;28;20094;-68
2022/09/12 06:40:31;;;;;;;26.65;23.02;;;15.70;99.90;;;;;;5037466;28;20107;-69
2022/09/12 06:42:57;;;;;;;25.15;22.40;;;15.70;99.90;;;;;;5043598;28;20037;-72
2022/09/12 06:45:22;;;;;;;26.13;22.13;;;15.70;99.90;;;;;;5034099;28;20104;-71
2022/09/12 06:47:48;;;;;;;26.65;23.05;;;15.80;99.90;;;;;;5032922;28;20034;-71
2022/09/12 06:50:14;;;;;;;28.15;22.52;;;15.70;99.90;;;;;;5036509;28;21845;-72
2022/09/12 06:52:39;;;;;;;29.10;23.15;;;15.80;99.90;;;;;;5034482;28;20869;-71
2022/09/12 06:55:06;;;;;;;28.13;22.42;;;15.70;99.90;;;;;;5033702;28;20045;-71
2022/09/12 06:57:35;;;;;;;27.15;22.30;;;15.70;99.90;;;;;;5038277;28;20686;-71
2022/09/12 07:00:03;;;;;;;25.02;22.33;;;15.80;99.90;;;;;;5038055;28;20045;-71
2022/09/12 07:02:29;;;;;;;26.15;21.55;;;15.80;99.90;;;;;;5037248;28;20045;-71
2022/09/12 07:04:55;;;;;;;25.05;21.50;;;15.80;99.90;;;;;;5041077;28;20096;-71
2022/09/12 07:07:21;;;;;;;24.38;21.75;;;15.90;99.90;;;;;;5045320;28;20045;-74
2022/09/12 07:09:47;;;;;;;24.40;20.88;;;16.00;99.90;;;;;;5047053;28;20052;-71
2022/09/12 07:12:13;;;;;;;26.42;22.42;;;16.00;99.90;;;;;;5020361;28;20064;-69
2022/09/12 07:14:38;;;;;;;25.70;22.85;;;16.00;99.90;;;;;;5038976;28;20141;-68
2022/09/12 07:17:04;;;;;;;24.52;21.92;;;16.00;99.90;;;;;;5042395;28;20037;-69
2022/09/12 07:19:30;;;;;;;25.58;21.95;;;16.10;99.90;;;;;;5037113;28;20077;-69
2022/09/12 07:21:55;;;;;;;25.48;22.52;;;16.10;99.90;;;;;;5036618;28;20826;-68
2022/09/12 07:24:21;;;;;;;26.02;22.80;;;16.20;99.90;;;;;;5037884;28;20498;-70
2022/09/12 07:26:46;;;;;;;26.38;23.17;;;16.30;99.90;;;;;;5038243;28;20112;-69
2022/09/12 07:29:17;;;;;;;27.83;22.80;;;16.30;99.90;;;;;;5047215;28;20049;-70
2022/09/12 07:31:43;;;;;;;24.73;22.02;;;16.40;99.90;;;;;;5038817;28;20053;-68
2022/09/12 07:34:09;;;;;;;27.25;22.10;;;16.50;99.90;;;;;;5038852;28;20110;-69
2022/09/12 07:36:36;;;;;;;28.17;22.15;;;16.50;99.90;;;;;;5042154;28;20124;-70
2022/09/12 07:39:01;;;;;;;28.17;23.50;;;16.60;99.90;;;;;;5038478;28;20049;-69
2022/09/12 07:41:29;;;;;;;29.17;24.42;;;16.60;99.90;;;;;;5036219;28;20352;-70
2022/09/12 07:43:57;;;;;;;31.48;26.05;;;16.70;99.90;;;;;;5039289;28;20052;-70
2022/09/12 07:46:23;;;;;;;34.38;26.88;;;16.70;99.90;;;;;;5035548;28;20053;-69
2022/09/12 07:48:54;;;;;;;33.90;28.48;;;16.80;99.90;;;;;;5019515;28;20422;-68
2022/09/12 07:51:20;;;;;;;35.90;28.27;;;16.80;99.90;;;;;;5038779;28;20048;-69
2022/09/12 07:53:46;;;;;;;35.25;29.17;;;16.80;99.90;;;;;;5035505;28;20065;-70
2022/09/12 07:56:12;;;;;;;34.38;28.65;;;17.00;99.90;;;;;;5036981;28;20083;-69
2022/09/12 07:58:39;;;;;;;36.72;29.35;;;17.00;99.90;;;;;;5037225;28;20463;-69
2022/09/12 08:01:18;;;;;;;38.42;29.00;;;17.00;99.90;;;;;;5044893;28;20049;-68
2022/09/12 08:03:47;;;;;;;36.25;28.60;;;17.00;99.90;;;;;;5039926;28;20094;-76
2022/09/12 08:06:22;;;;;;;38.17;27.92;;;17.10;99.90;;;;;;5040481;28;20037;-74
2022/09/12 08:08:49;;;;;;;33.38;27.80;;;17.10;99.90;;;;;;5035177;28;20049;-74
2022/09/12 08:11:17;;;;;;;37.10;28.55;;;17.20;99.90;;;;;;5044709;28;20053;-75
2022/09/12 08:13:44;;;;;;;32.58;27.67;;;17.30;99.90;;;;;;5037575;28;20037;-77
2022/09/12 08:16:17;;;;;;;36.08;28.52;;;17.30;99.90;;;;;;5022094;28;20041;-73
2022/09/12 08:18:43;;;;;;;35.03;26.95;;;17.40;99.90;;;;;;5036883;28;20115;-76
2022/09/12 08:21:18;;;;;;;37.85;29.08;;;17.60;99.90;;;;;;5041806;28;20076;-75
2022/09/12 08:23:45;;;;;;;35.75;29.48;;;17.60;99.90;;;;;;5043970;28;20033;-73
2022/09/12 08:26:12;;;;;;;37.47;28.85;;;17.70;99.90;;;;;;5045264;28;20048;-75
2022/09/12 08:28:44;;;;;;;37.83;29.65;;;17.80;99.90;;;;;;5039971;28;20052;-75
2022/09/12 08:31:12;;;;;;;37.88;29.67;;;17.80;99.90;;;;;;5044580;28;20048;-72
2022/09/12 08:33:38;;;;;;;37.90;29.58;;;17.80;99.90;;;;;;5041366;28;20036;-74
2022/09/12 08:36:10;;;;;;;42.08;31.55;;;17.80;99.90;;;;;;5038917;28;20492;-73
2022/09/12 08:38:38;;;;;;;37.90;30.08;;;17.90;99.90;;;;;;5021619;28;20041;-74
2022/09/12 08:41:18;;;;;;;39.75;29.70;;;17.90;99.90;;;;;;5040383;28;20130;-74
2022/09/12 08:44:08;;;;;;;40.92;31.27;;;18.00;99.90;;;;;;5041196;28;20059;-73
2022/09/12 08:46:52;;;;;;;40.33;31.52;;;17.90;99.90;;;;;;5011739;28;20577;-73
2022/09/12 08:49:29;;;;;;;40.78;30.60;;;18.00;99.90;;;;;;5035794;28;20049;-80
2022/09/12 08:51:58;;;;;;;36.30;29.83;;;18.00;99.90;;;;;;5040303;28;20045;-70
2022/09/12 08:54:28;;;;;;;41.13;30.05;;;18.10;99.90;;;;;;5037949;28;20049;-70
2022/09/12 08:57:00;;;;;;;38.90;30.15;;;18.20;99.90;;;;;;5043142;28;20352;-70
2022/09/12 08:59:26;;;;;;;40.25;30.05;;;18.20;99.90;;;;;;5044973;28;20048;-69
2022/09/12 09:01:58;;;;;;;42.28;33.22;;;18.20;99.90;;;;;;5044609;28;20124;-71
2022/09/12 09:04:33;;;;;;;40.70;32.03;;;18.20;99.90;;;;;;5043277;28;20478;-70
2022/09/12 09:07:27;;;;;;;45.05;32.75;;;18.30;99.90;;;;;;5044674;28;20052;-72
2022/09/12 09:10:17;;;;;;;44.53;33.00;;;18.30;99.90;;;;;;5044918;28;20041;-70
2022/09/12 09:14:46;;;;;;;47.47;36.38;;;18.30;99.90;;;;;;5043898;28;20356;-72
2022/09/12 09:16:20;;;;;;;49.33;37.20;;;18.40;99.90;;;;;;5040326;28;20479;-71
2022/09/12 09:18:48;;;;;;;48.47;36.78;;;18.40;99.90;;;;;;5037644;28;20095;-71
2022/09/12 09:21:55;;;;;;;45.90;34.83;;;18.60;99.90;;;;;;5025108;28;20097;-71
2022/09/12 09:24:48;;;;;;;49.65;37.35;;;18.80;99.90;;;;;;5041298;28;20172;-71
2022/09/12 09:27:29;;;;;;;41.53;34.08;;;19.00;99.90;;;;;;5031534;28;20053;-71
2022/09/12 09:29:55;;;;;;;41.25;32.40;;;19.10;99.90;;;;;;5034860;28;20368;-71
2022/09/12 09:32:51;;;;;;;37.08;31.35;;;19.30;99.90;;;;;;5044247;28;20049;-71
2022/09/12 09:35:49;;;;;;;42.08;30.17;;;19.30;99.90;;;;;;5038106;28;20479;-71
2022/09/12 09:38:40;;;;;;;38.80;29.38;;;19.40;99.90;;;;;;5031078;28;20132;-71
2022/09/12 09:41:32;;;;;;;36.40;27.88;;;19.40;99.90;;;;;;5024454;28;20124;-70
2022/09/12 09:43:59;;;;;;;33.13;25.90;;;19.40;99.90;;;;;;5040524;28;20187;-75
2022/09/12 09:46:26;;;;;;;28.45;22.75;;;19.50;99.90;;;;;;5033607;28;20130;-73
2022/09/12 09:48:52;;;;;;;33.15;25.63;;;19.60;99.90;;;;;;5037063;28;20036;-74
2022/09/12 09:51:26;;;;;;;30.30;23.85;;;19.70;99.90;;;;;;5035343;28;20056;-68
2022/09/12 09:53:53;;;;;;;33.50;24.95;;;19.70;99.90;;;;;;5042100;28;20064;-67
2022/09/12 09:56:35;;;;;;;35.78;26.23;;;19.70;99.90;;;;;;5035059;28;20116;-69
2022/09/12 09:59:17;;;;;;;35.33;27.25;;;19.70;99.90;;;;;;5039449;28;20041;-68
2022/09/12 10:02:05;;;;;;;33.60;25.63;;;19.70;99.90;;;;;;5042558;28;20467;-68
2022/09/12 10:04:34;;;;;;;35.35;25.90;;;19.70;99.90;;;;;;5033930;28;20120;-67
2022/09/12 10:07:03;;;;;;;33.08;25.60;;;19.80;99.90;;;;;;5035094;28;20041;-72
2022/09/12 10:09:34;;;;;;;28.88;22.40;;;19.80;99.90;;;;;;5035168;28;20317;-71
2022/09/12 10:12:18;;;;;;;31.55;23.23;;;19.80;99.90;;;;;;5040037;28;20048;-69
2022/09/12 10:15:14;;;;;;;28.20;21.17;;;19.90;99.90;;;;;;5033434;28;20041;-72
2022/09/12 10:17:45;;;;;;;26.40;21.45;;;20.00;99.90;;;;;;5036086;28;20367;-70
2022/09/12 10:20:31;;;;;;;26.00;20.13;;;20.10;99.90;;;;;;5027248;28;20049;-72
2022/09/12 10:23:04;;;;;;;26.40;21.45;;;20.10;99.90;;;;;;5037655;28;20076;-71
2022/09/12 10:25:30;;;;;;;27.15;19.92;;;20.10;99.90;;;;;;5034080;28;20056;-70
2022/09/12 10:27:58;;;;;;;25.55;18.70;;;20.10;99.90;;;;;;5043802;28;20124;-73
2022/09/12 10:30:27;;;;;;;29.60;17.05;;;20.20;99.90;;;;;;5043411;28;20030;-70
2022/09/12 10:32:56;;;;;;;23.52;17.80;;;20.30;99.90;;;;;;5040139;28;20049;-72
2022/09/12 10:35:26;;;;;;;26.77;18.67;;;20.30;99.90;;;;;;5047182;28;20045;-70
2022/09/12 10:38:10;;;;;;;24.73;18.73;;;20.40;99.90;;;;;;5043490;28;20163;-70
2022/09/12 10:40:41;;;;;;;21.33;17.25;;;20.40;99.90;;;;;;5040962;28;20095;-70
2022/09/12 10:43:25;;;;;;;26.10;19.50;;;20.50;99.90;;;;;;5046681;28;20397;-70
2022/09/12 10:45:55;;;;;;;25.97;18.77;;;20.40;99.90;;;;;;5039749;28;20584;-70
2022/09/12 10:48:31;;;;;;;25.80;18.35;;;20.60;99.90;;;;;;5045818;28;20175;-71
2022/09/12 10:50:58;;;;;;;22.88;17.67;;;20.60;99.90;;;;;;5045596;28;20478;-71
2022/09/12 10:53:42;;;;;;;21.85;16.23;;;20.80;99.90;;;;;;5039684;28;20045;-72
2022/09/12 10:56:10;;;;;;;21.88;15.82;;;20.90;99.90;;;;;;5038112;28;20049;-71
2022/09/12 10:59:13;;;;;;;20.73;16.67;;;21.00;99.90;;;;;;5027641;28;20060;-71
2022/09/12 11:01:42;;;;;;;18.70;14.50;;;21.10;99.90;;;;;;5041106;28;20041;-71
2022/09/12 11:04:30;;;;;;;18.70;14.73;;;21.20;99.90;;;;;;5041455;28;20084;-71
2022/09/12 11:07:29;;;;;;;16.73;13.75;;;21.10;99.90;;;;;;5046744;28;20059;-71
2022/09/12 11:09:54;;;;;;;17.33;14.82;;;21.10;99.90;;;;;;5046755;28;20053;-72
2022/09/12 11:12:40;;;;;;;19.35;14.82;;;21.20;99.90;;;;;;5027877;28;20072;-71
2022/09/12 11:15:39;;;;;;;18.27;13.05;;;21.30;99.90;;;;;;5044519;28;20054;-71
2022/09/12 11:18:25;;;;;;;18.70;12.60;;;21.50;99.90;;;;;;4987126;28;20877;-72
2022/09/12 11:21:08;;;;;;;17.10;12.70;;;21.70;99.90;;;;;;5035746;28;20549;-72
2022/09/12 11:24:11;;;;;;;15.80;12.88;;;21.80;99.90;;;;;;5042136;28;20056;-72
2022/09/12 11:27:03;;;;;;;16.40;12.60;;;21.80;99.90;;;;;;5041838;28;20057;-72
2022/09/12 11:29:45;;;;;;;18.83;14.13;;;21.90;99.90;;;;;;5036311;28;20057;-72
2022/09/12 11:32:11;;;;;;;13.98;12.50;;;21.90;99.90;;;;;;5037277;28;20372;-72
2022/09/12 11:35:16;;;;;;;16.65;14.32;;;22.00;99.90;;;;;;5037300;28;20051;-72
2022/09/12 11:38:10;;;;;;;16.15;13.73;;;22.10;99.90;;;;;;5043775;28;20053;-71
2022/09/12 11:40:57;;;;;;;16.40;14.50;;;22.00;99.90;;;;;;5044788;28;20060;-72
2022/09/12 11:43:45;;;;;;;17.63;13.63;;;22.10;99.90;;;;;;5042993;28;20041;-72
2022/09/12 11:46:31;;;;;;;15.45;13.65;;;22.00;99.90;;;;;;5042549;28;20068;-72
2022/09/12 11:49:11;;;;;;;14.63;11.80;;;21.90;99.90;;;;;;5044982;28;20356;-72
2022/09/12 11:51:48;;;;;;;12.52;10.45;;;22.10;99.90;;;;;;5042390;28;20490;-73
2022/09/12 11:54:43;;;;;;;12.80;9.13;;;22.10;99.90;;;;;;5036949;28;20054;-71
2022/09/12 11:57:32;;;;;;;14.65;9.48;;;22.00;99.90;;;;;;5017841;28;20065;-72
2022/09/12 12:00:01;;;;;;;13.48;9.90;;;21.90;99.90;;;;;;5009103;28;20050;-72
2022/09/12 12:02:42;;;;;;;13.38;11.13;;;22.00;99.90;;;;;;5036103;28;20045;-73
2022/09/12 12:05:29;;;;;;;13.88;10.38;;;22.10;99.90;;;;;;5044238;28;20087;-73
2022/09/12 12:08:00;;;;;;;12.35;11.05;;;22.10;99.90;;;;;;5037006;28;20129;-73
2022/09/12 12:10:36;;;;;;;11.80;10.15;;;22.10;99.90;;;;;;5043082;28;20053;-73
2022/09/12 12:13:19;;;;;;;16.05;10.73;;;22.20;99.90;;;;;;5035302;28;20053;-73
2022/09/12 12:15:59;;;;;;;14.90;12.80;;;22.50;99.90;;;;;;5044872;28;20049;-73
2022/09/12 12:18:27;;;;;;;17.08;13.65;;;22.60;99.90;;;;;;5044079;28;20057;-73
2022/09/12 12:20:55;;;;;;;16.58;11.82;;;22.60;99.90;;;;;;5042294;28;20049;-72
2022/09/12 12:23:27;;;;;;;12.75;10.02;;;22.60;99.90;;;;;;5042515;28;20099;-74
2022/09/12 12:26:04;;;;;;;12.23;10.77;;;22.60;99.90;;;;;;5040014;28;20084;-72
2022/09/12 12:28:41;;;;;;;15.88;10.48;;;22.50;99.90;;;;;;5044539;28;20589;-74
2022/09/12 12:31:08;;;;;;;11.60;9.32;;;22.50;99.90;;;;;;5040727;28;20045;-71
2022/09/12 12:33:36;;;;;;;11.73;9.63;;;22.60;99.90;;;;;;5045160;28;20041;-74
2022/09/12 12:36:06;;;;;;;15.52;10.25;;;22.70;99.90;;;;;;5038440;28;20414;-73
2022/09/12 12:38:39;;;;;;;12.55;8.07;;;22.70;99.90;;;;;;5034956;28;20056;-75
2022/09/12 12:41:17;;;;;;;10.13;7.53;;;22.90;99.90;;;;;;5036221;28;20505;-74
2022/09/12 12:43:47;;;;;;;10.23;8.70;;;23.00;99.90;;;;;;5036040;28;20060;-74
2022/09/12 12:46:14;;;;;;;10.90;9.15;;;23.10;99.90;;;;;;5047639;28;20056;-75
2022/09/12 12:49:06;;;;;;;10.35;8.20;;;23.10;99.90;;;;;;5036431;28;20041;-72
2022/09/12 12:51:40;;;;;;;10.20;7.93;;;22.90;99.90;;;;;;5043230;28;20466;-74
2022/09/12 12:54:26;;;;;;;;;;;22.80;99.90;;;;;;5035680;28;20180;-73
2022/09/12 12:57:11;;;;;;;10.38;7.85;;;22.60;99.90;;;;;;5035856;28;19932;-73
2022/09/12 12:59:49;;;;;;;8.93;8.02;;;22.70;99.90;;;;;;5035571;28;20112;-73